sensor_id;sensor_type;location;lat;lon;timestamp;pressure;altitude;pressure_sealevel;temperature;humidity
41898;BME280;27576;53.366;-1.498;2023-04-07T00:01:21;100418.59;;;7.28;91.00
41898;BME280;27576;53.366;-1.498;2023-04-07T00:03:47;100457.72;;;7.46;89.41
41898;BME280;27576;53.366;-1.498;2023-04-07T00:06:12;100462.03;;;7.46;90.84
41898;BME280;27576;53.366;-1.498;2023-04-07T00:08:38;100402.69;;;7.11;89.32
41898;BME280;27576;53.366;-1.498;2023-04-07T00:11:04;100439.25;;;7.29;90.34
41898;BME280;27576;53.366;-1.498;2023-04-07T00:13:29;100449.88;;;7.42;90.03
41898;BME280;27576;53.366;-1.498;2023-04-07T00:15:57;100431.44;;;7.26;90.83
41898;BME280;27576;53.366;-1.498;2023-04-07T00:18:23;100426.25;;;7.25;89.38
41898;BME280;27576;53.366;-1.498;2023-04-07T00:20:48;100457.53;;;7.38;90.51
41898;BME280;27576;53.366;-1.498;2023-04-07T00:23:13;100415.75;;;7.19;89.08
41898;BME280;27576;53.366;-1.498;2023-04-07T00:25:40;100446.97;;;7.29;89.49
41898;BME280;27576;53.366;-1.498;2023-04-07T00:28:05;100401.69;;;7.06;89.44
41898;BME280;27576;53.366;-1.498;2023-04-07T00:30:30;100408.66;;;7.10;88.90
41898;BME280;27576;53.366;-1.498;2023-04-07T00:32:56;100421.56;;;7.10;88.19
41898;BME280;27576;53.366;-1.498;2023-04-07T00:35:21;100417.94;;;7.03;90.02
41898;BME280;27576;53.366;-1.498;2023-04-07T00:37:47;100464.16;;;7.29;89.34
41898;BME280;27576;53.366;-1.498;2023-04-07T00:40:12;100441.50;;;7.17;88.80
41898;BME280;27576;53.366;-1.498;2023-04-07T00:42:37;100462.38;;;7.26;90.58
41898;BME280;27576;53.366;-1.498;2023-04-07T00:45:03;100421.19;;;6.96;88.27
41898;BME280;27576;53.366;-1.498;2023-04-07T00:47:29;100459.44;;;7.12;90.51
41898;BME280;27576;53.366;-1.498;2023-04-07T00:49:54;100470.72;;;7.18;88.23
41898;BME280;27576;53.366;-1.498;2023-04-07T00:52:20;100426.13;;;6.88;90.57
41898;BME280;27576;53.366;-1.498;2023-04-07T00:54:55;100435.69;;;6.93;90.19
41898;BME280;27576;53.366;-1.498;2023-04-07T00:57:21;100461.81;;;7.06;90.37
41898;BME280;27576;53.366;-1.498;2023-04-07T00:59:48;100479.16;;;7.12;89.35
41898;BME280;27576;53.366;-1.498;2023-04-07T01:02:42;100471.34;;;7.09;88.92
41898;BME280;27576;53.366;-1.498;2023-04-07T01:05:17;100473.00;;;7.07;90.14
41898;BME280;27576;53.366;-1.498;2023-04-07T01:07:57;100474.66;;;7.05;89.69
41898;BME280;27576;53.366;-1.498;2023-04-07T01:10:50;100478.03;;;7.02;88.57
41898;BME280;27576;53.366;-1.498;2023-04-07T01:15:49;100429.78;;;6.67;89.05
41898;BME280;27576;53.366;-1.498;2023-04-07T01:18:21;100480.44;;;6.96;88.60
41898;BME280;27576;53.366;-1.498;2023-04-07T01:20:50;100469.00;;;6.86;90.75
41898;BME280;27576;53.366;-1.498;2023-04-07T01:29:33;100491.34;;;6.87;88.63
41898;BME280;27576;53.366;-1.498;2023-04-07T01:32:03;100467.63;;;6.69;87.66
41898;BME280;27576;53.366;-1.498;2023-04-07T01:34:31;100482.38;;;6.75;88.17
41898;BME280;27576;53.366;-1.498;2023-04-07T01:36:58;100484.19;;;6.77;88.01
41898;BME280;27576;53.366;-1.498;2023-04-07T01:39:26;100475.25;;;6.66;88.00
41898;BME280;27576;53.366;-1.498;2023-04-07T01:41:52;100468.03;;;6.53;89.05
41898;BME280;27576;53.366;-1.498;2023-04-07T01:44:19;100475.88;;;6.57;88.71
41898;BME280;27576;53.366;-1.498;2023-04-07T01:46:45;100469.84;;;6.57;87.87
41898;BME280;27576;53.366;-1.498;2023-04-07T01:49:12;100480.31;;;6.63;89.45
41898;BME280;27576;53.366;-1.498;2023-04-07T01:51:39;100486.44;;;6.67;89.04
41898;BME280;27576;53.366;-1.498;2023-04-07T01:54:05;100449.63;;;6.41;89.37
41898;BME280;27576;53.366;-1.498;2023-04-07T01:56:32;100464.47;;;6.49;87.75
41898;BME280;27576;53.366;-1.498;2023-04-07T01:58:57;100454.53;;;6.33;86.33
41898;BME280;27576;53.366;-1.498;2023-04-07T02:01:23;100482.53;;;6.51;88.61
41898;BME280;27576;53.366;-1.498;2023-04-07T02:03:56;100506.13;;;6.64;87.65
41898;BME280;27576;53.366;-1.498;2023-04-07T02:06:32;100488.41;;;6.47;90.21
41898;BME280;27576;53.366;-1.498;2023-04-07T02:09:03;100502.28;;;6.52;88.70
41898;BME280;27576;53.366;-1.498;2023-04-07T02:11:32;100514.44;;;6.56;88.70
41898;BME280;27576;53.366;-1.498;2023-04-07T02:14:00;100505.59;;;6.48;89.53
41898;BME280;27576;53.366;-1.498;2023-04-07T02:16:28;100490.59;;;6.34;90.62
41898;BME280;27576;53.366;-1.498;2023-04-07T02:18:55;100521.84;;;6.45;90.78
41898;BME280;27576;53.366;-1.498;2023-04-07T02:21:21;100466.69;;;6.10;92.01
41898;BME280;27576;53.366;-1.498;2023-04-07T02:23:46;100482.19;;;6.13;92.22
41898;BME280;27576;53.366;-1.498;2023-04-07T02:26:12;100509.13;;;6.23;92.64
41898;BME280;27576;53.366;-1.498;2023-04-07T02:28:37;100487.34;;;6.13;92.75
41898;BME280;27576;53.366;-1.498;2023-04-07T02:31:03;100478.59;;;6.06;90.96
41898;BME280;27576;53.366;-1.498;2023-04-07T02:33:28;100500.28;;;6.14;91.98
41898;BME280;27576;53.366;-1.498;2023-04-07T02:35:54;100452.94;;;5.84;92.24
41898;BME280;27576;53.366;-1.498;2023-04-07T02:38:21;100514.13;;;6.18;93.66
41898;BME280;27576;53.366;-1.498;2023-04-07T02:40:46;100473.53;;;5.84;93.28
41898;BME280;27576;53.366;-1.498;2023-04-07T02:43:13;100503.38;;;6.04;93.93
41898;BME280;27576;53.366;-1.498;2023-04-07T02:45:38;100497.25;;;6.01;93.79
41898;BME280;27576;53.366;-1.498;2023-04-07T02:48:03;100489.50;;;5.99;94.00
41898;BME280;27576;53.366;-1.498;2023-04-07T02:50:29;100489.16;;;5.90;93.85
41898;BME280;27576;53.366;-1.498;2023-04-07T02:52:54;100512.69;;;6.01;96.43
41898;BME280;27576;53.366;-1.498;2023-04-07T02:55:20;100480.94;;;5.75;93.20
41898;BME280;27576;53.366;-1.498;2023-04-07T02:57:45;100480.88;;;5.73;95.48
41898;BME280;27576;53.366;-1.498;2023-04-07T03:00:11;100452.78;;;5.54;95.48
41898;BME280;27576;53.366;-1.498;2023-04-07T03:02:36;100494.56;;;5.72;95.83
41898;BME280;27576;53.366;-1.498;2023-04-07T03:05:02;100483.97;;;5.63;95.60
41898;BME280;27576;53.366;-1.498;2023-04-07T03:07:28;100495.16;;;5.65;95.29
41898;BME280;27576;53.366;-1.498;2023-04-07T03:09:56;100495.88;;;5.61;94.24
41898;BME280;27576;53.366;-1.498;2023-04-07T03:12:21;100506.28;;;5.64;95.55
41898;BME280;27576;53.366;-1.498;2023-04-07T03:14:49;100504.47;;;5.61;95.07
41898;BME280;27576;53.366;-1.498;2023-04-07T03:17:15;100540.88;;;5.74;95.79
41898;BME280;27576;53.366;-1.498;2023-04-07T03:19:40;100513.69;;;5.55;95.68
41898;BME280;27576;53.366;-1.498;2023-04-07T03:22:05;100510.88;;;5.49;95.93
41898;BME280;27576;53.366;-1.498;2023-04-07T03:24:31;100502.03;;;5.40;96.17
41898;BME280;27576;53.366;-1.498;2023-04-07T03:26:56;100515.03;;;5.45;96.52
41898;BME280;27576;53.366;-1.498;2023-04-07T03:29:22;100506.34;;;5.41;96.68
41898;BME280;27576;53.366;-1.498;2023-04-07T03:31:47;100511.59;;;5.45;96.55
41898;BME280;27576;53.366;-1.498;2023-04-07T03:34:13;100542.03;;;5.58;95.69
41898;BME280;27576;53.366;-1.498;2023-04-07T03:36:39;100553.97;;;5.56;96.04
41898;BME280;27576;53.366;-1.498;2023-04-07T03:39:06;100518.84;;;5.31;96.70
41898;BME280;27576;53.366;-1.498;2023-04-07T03:41:31;100558.13;;;5.52;97.59
41898;BME280;27576;53.366;-1.498;2023-04-07T03:43:57;100533.56;;;5.35;98.80
41898;BME280;27576;53.366;-1.498;2023-04-07T03:46:22;100551.91;;;5.46;97.55
41898;BME280;27576;53.366;-1.498;2023-04-07T03:48:50;100553.44;;;5.40;97.96
41898;BME280;27576;53.366;-1.498;2023-04-07T03:51:16;100547.03;;;5.29;97.80
41898;BME280;27576;53.366;-1.498;2023-04-07T03:53:41;100548.72;;;5.29;96.79
41898;BME280;27576;53.366;-1.498;2023-04-07T03:56:07;100556.56;;;5.32;97.38
41898;BME280;27576;53.366;-1.498;2023-04-07T03:58:32;100531.00;;;5.12;97.65
41898;BME280;27576;53.366;-1.498;2023-04-07T04:00:58;100569.28;;;5.29;97.45
41898;BME280;27576;53.366;-1.498;2023-04-07T04:03:23;100570.03;;;5.26;96.82
41898;BME280;27576;53.366;-1.498;2023-04-07T04:05:48;100544.78;;;5.14;97.33
41898;BME280;27576;53.366;-1.498;2023-04-07T04:08:14;100555.81;;;5.12;96.61
41898;BME280;27576;53.366;-1.498;2023-04-07T04:10:39;100575.78;;;5.19;95.78
41898;BME280;27576;53.366;-1.498;2023-04-07T04:13:05;100502.31;;;4.78;95.82
41898;BME280;27576;53.366;-1.498;2023-04-07T04:15:32;100560.00;;;5.10;96.77
41898;BME280;27576;53.366;-1.498;2023-04-07T04:17:57;100572.13;;;5.12;98.28
41898;BME280;27576;53.366;-1.498;2023-04-07T04:20:22;100535.25;;;4.88;96.92
41898;BME280;27576;53.366;-1.498;2023-04-07T04:22:48;100550.13;;;4.97;96.35
41898;BME280;27576;53.366;-1.498;2023-04-07T04:25:15;100578.00;;;5.10;95.80
41898;BME280;27576;53.366;-1.498;2023-04-07T04:27:41;100539.50;;;4.87;95.54
41898;BME280;27576;53.366;-1.498;2023-04-07T04:30:07;100518.25;;;4.69;95.54
41898;BME280;27576;53.366;-1.498;2023-04-07T04:32:32;100534.72;;;4.74;95.78
41898;BME280;27576;53.366;-1.498;2023-04-07T04:34:58;100573.94;;;4.92;96.85
41898;BME280;27576;53.366;-1.498;2023-04-07T04:37:24;100588.69;;;4.98;96.60
41898;BME280;27576;53.366;-1.498;2023-04-07T04:39:50;100479.16;;;4.31;97.54
41898;BME280;27576;53.366;-1.498;2023-04-07T04:42:15;100565.69;;;4.79;96.31
41898;BME280;27576;53.366;-1.498;2023-04-07T04:44:41;100573.34;;;4.77;94.68
41898;BME280;27576;53.366;-1.498;2023-04-07T04:47:06;100584.66;;;4.82;96.04
41898;BME280;27576;53.366;-1.498;2023-04-07T04:49:31;100582.97;;;4.83;95.70
41898;BME280;27576;53.366;-1.498;2023-04-07T04:51:57;100588.88;;;4.80;96.82
41898;BME280;27576;53.366;-1.498;2023-04-07T04:54:22;100601.13;;;4.87;97.33
41898;BME280;27576;53.366;-1.498;2023-04-07T04:56:48;100592.22;;;4.79;96.90
41898;BME280;27576;53.366;-1.498;2023-04-07T04:59:13;100573.00;;;4.68;97.43
41898;BME280;27576;53.366;-1.498;2023-04-07T05:01:38;100570.16;;;4.62;97.11
41898;BME280;27576;53.366;-1.498;2023-04-07T05:04:04;100581.63;;;4.70;97.31
41898;BME280;27576;53.366;-1.498;2023-04-07T05:06:30;100531.53;;;4.36;95.16
41898;BME280;27576;53.366;-1.498;2023-04-07T05:08:55;100606.00;;;4.81;95.45
41898;BME280;27576;53.366;-1.498;2023-04-07T05:11:21;100563.22;;;4.59;94.69
41898;BME280;27576;53.366;-1.498;2023-04-07T05:13:46;100583.31;;;4.70;95.20
41898;BME280;27576;53.366;-1.498;2023-04-07T05:16:12;100606.19;;;4.86;94.88
41898;BME280;27576;53.366;-1.498;2023-04-07T05:18:38;100607.13;;;4.88;94.52
41898;BME280;27576;53.366;-1.498;2023-04-07T05:21:03;100555.53;;;4.59;95.99
41898;BME280;27576;53.366;-1.498;2023-04-07T05:23:29;100578.13;;;4.68;94.40
41898;BME280;27576;53.366;-1.498;2023-04-07T05:25:54;100556.13;;;4.52;94.75
41898;BME280;27576;53.366;-1.498;2023-04-07T05:28:19;100595.44;;;4.74;94.97
41898;BME280;27576;53.366;-1.498;2023-04-07T05:30:45;100575.88;;;4.55;96.35
41898;BME280;27576;53.366;-1.498;2023-04-07T05:33:10;100575.69;;;4.50;96.02
41898;BME280;27576;53.366;-1.498;2023-04-07T05:35:35;100567.13;;;4.50;95.34
41898;BME280;27576;53.366;-1.498;2023-04-07T05:38:01;100579.97;;;4.50;94.81
41898;BME280;27576;53.366;-1.498;2023-04-07T05:40:27;100583.56;;;4.55;95.01
41898;BME280;27576;53.366;-1.498;2023-04-07T05:42:54;100621.84;;;4.71;96.72
41898;BME280;27576;53.366;-1.498;2023-04-07T05:45:20;100592.91;;;4.53;95.68
41898;BME280;27576;53.366;-1.498;2023-04-07T05:47:45;100614.75;;;4.64;95.88
41898;BME280;27576;53.366;-1.498;2023-04-07T05:50:14;100603.97;;;4.52;96.27
41898;BME280;27576;53.366;-1.498;2023-04-07T05:52:39;100606.50;;;4.50;96.61
41898;BME280;27576;53.366;-1.498;2023-04-07T05:55:05;100618.88;;;4.60;96.34
41898;BME280;27576;53.366;-1.498;2023-04-07T05:57:31;100623.31;;;4.64;97.28
41898;BME280;27576;53.366;-1.498;2023-04-07T05:59:57;100567.25;;;4.32;96.62
41898;BME280;27576;53.366;-1.498;2023-04-07T06:02:22;100636.47;;;4.72;96.64
41898;BME280;27576;53.366;-1.498;2023-04-07T06:04:48;100623.38;;;4.66;96.29
41898;BME280;27576;53.366;-1.498;2023-04-07T06:07:13;100609.53;;;4.62;97.06
41898;BME280;27576;53.366;-1.498;2023-04-07T06:09:39;100609.41;;;4.59;96.82
41898;BME280;27576;53.366;-1.498;2023-04-07T06:12:04;100612.28;;;4.67;96.61
41898;BME280;27576;53.366;-1.498;2023-04-07T06:14:31;100654.44;;;4.95;96.48
41898;BME280;27576;53.366;-1.498;2023-04-07T06:16:56;100643.97;;;4.88;97.31
41898;BME280;27576;53.366;-1.498;2023-04-07T06:19:21;100671.00;;;5.01;97.65
41898;BME280;27576;53.366;-1.498;2023-04-07T06:21:47;100641.44;;;4.90;97.95
41898;BME280;27576;53.366;-1.498;2023-04-07T06:24:12;100663.34;;;5.03;97.62
41898;BME280;27576;53.366;-1.498;2023-04-07T06:26:38;100670.47;;;5.10;97.85
41898;BME280;27576;53.366;-1.498;2023-04-07T06:29:04;100637.19;;;4.90;97.68
41898;BME280;27576;53.366;-1.498;2023-04-07T06:31:30;100653.75;;;4.99;97.05
41898;BME280;27576;53.366;-1.498;2023-04-07T06:33:55;100611.31;;;4.86;95.98
41898;BME280;27576;53.366;-1.498;2023-04-07T06:36:21;100681.63;;;5.33;95.52
41898;BME280;27576;53.366;-1.498;2023-04-07T06:38:49;100693.06;;;5.41;94.87
41898;BME280;27576;53.366;-1.498;2023-04-07T06:41:14;100680.31;;;5.43;94.11
41898;BME280;27576;53.366;-1.498;2023-04-07T06:43:45;100694.59;;;5.58;92.61
41898;BME280;27576;53.366;-1.498;2023-04-07T06:46:11;100677.41;;;5.57;91.78
41898;BME280;27576;53.366;-1.498;2023-04-07T06:48:36;100681.41;;;5.73;92.19
41898;BME280;27576;53.366;-1.498;2023-04-07T06:51:02;100689.03;;;5.93;90.95
41898;BME280;27576;53.366;-1.498;2023-04-07T06:53:27;100684.09;;;6.23;88.58
41898;BME280;27576;53.366;-1.498;2023-04-07T06:56:06;100701.47;;;6.54;86.93
41898;BME280;27576;53.366;-1.498;2023-04-07T06:58:32;100700.13;;;6.65;86.49
41898;BME280;27576;53.366;-1.498;2023-04-07T07:00:59;100681.13;;;6.61;85.37
41898;BME280;27576;53.366;-1.498;2023-04-07T07:03:24;100686.72;;;6.75;85.48
41898;BME280;27576;53.366;-1.498;2023-04-07T07:05:53;100671.09;;;6.71;84.74
41898;BME280;27576;53.366;-1.498;2023-04-07T07:08:22;100699.50;;;6.99;85.01
41898;BME280;27576;53.366;-1.498;2023-04-07T07:10:47;100696.28;;;7.06;84.51
41898;BME280;27576;53.366;-1.498;2023-04-07T07:13:13;100691.22;;;7.08;83.83
41898;BME280;27576;53.366;-1.498;2023-04-07T07:15:38;100702.81;;;7.22;81.50
41898;BME280;27576;53.366;-1.498;2023-04-07T07:18:04;100687.19;;;7.18;82.32
41898;BME280;27576;53.366;-1.498;2023-04-07T07:20:29;100685.97;;;7.33;83.01
41898;BME280;27576;53.366;-1.498;2023-04-07T07:22:58;100703.78;;;7.54;82.08
41898;BME280;27576;53.366;-1.498;2023-04-07T07:25:24;100686.47;;;7.50;81.08
41898;BME280;27576;53.366;-1.498;2023-04-07T07:27:51;100651.81;;;7.41;81.22
41898;BME280;27576;53.366;-1.498;2023-04-07T07:30:19;100721.00;;;7.84;80.33
41898;BME280;27576;53.366;-1.498;2023-04-07T07:32:45;100700.03;;;7.73;81.77
41898;BME280;27576;53.366;-1.498;2023-04-07T07:35:10;100708.06;;;7.82;81.91
41898;BME280;27576;53.366;-1.498;2023-04-07T07:37:35;100713.47;;;7.92;79.83
41898;BME280;27576;53.366;-1.498;2023-04-07T07:40:04;100687.31;;;7.79;79.60
41898;BME280;27576;53.366;-1.498;2023-04-07T07:42:30;100721.75;;;8.10;80.61
41898;BME280;27576;53.366;-1.498;2023-04-07T07:44:56;100707.81;;;8.05;80.43
41898;BME280;27576;53.366;-1.498;2023-04-07T07:47:22;100710.47;;;8.08;78.12
41898;BME280;27576;53.366;-1.498;2023-04-07T07:49:48;100728.22;;;8.27;79.36
41898;BME280;27576;53.366;-1.498;2023-04-07T07:52:13;100718.84;;;8.29;76.51
41898;BME280;27576;53.366;-1.498;2023-04-07T07:54:40;100729.44;;;8.39;76.33
41898;BME280;27576;53.366;-1.498;2023-04-07T07:57:05;100726.94;;;8.42;77.93
41898;BME280;27576;53.366;-1.498;2023-04-07T07:59:31;100711.91;;;8.28;77.84
41898;BME280;27576;53.366;-1.498;2023-04-07T08:01:57;100703.28;;;8.28;76.11
41898;BME280;27576;53.366;-1.498;2023-04-07T08:04:22;100724.59;;;8.51;76.30
41898;BME280;27576;53.366;-1.498;2023-04-07T08:06:49;100724.63;;;8.52;75.75
41898;BME280;27576;53.366;-1.498;2023-04-07T08:09:16;100735.16;;;8.60;76.16
41898;BME280;27576;53.366;-1.498;2023-04-07T08:11:41;100719.25;;;8.45;76.12
41898;BME280;27576;53.366;-1.498;2023-04-07T08:14:07;100729.97;;;8.60;75.11
41898;BME280;27576;53.366;-1.498;2023-04-07T08:16:32;100736.94;;;8.63;75.22
41898;BME280;27576;53.366;-1.498;2023-04-07T08:18:59;100728.31;;;8.62;75.40
41898;BME280;27576;53.366;-1.498;2023-04-07T08:21:24;100706.72;;;8.60;74.73
41898;BME280;27576;53.366;-1.498;2023-04-07T08:23:52;100742.69;;;8.85;74.72
41898;BME280;27576;53.366;-1.498;2023-04-07T08:26:18;100716.56;;;8.73;73.81
41898;BME280;27576;53.366;-1.498;2023-04-07T08:28:45;100714.00;;;8.75;73.92
41898;BME280;27576;53.366;-1.498;2023-04-07T08:31:10;100725.47;;;8.86;74.91
41898;BME280;27576;53.366;-1.498;2023-04-07T08:33:35;100704.78;;;8.84;74.52
41898;BME280;27576;53.366;-1.498;2023-04-07T08:36:01;100698.78;;;8.87;74.67
41898;BME280;27576;53.366;-1.498;2023-04-07T08:38:26;100731.50;;;9.21;74.15
41898;BME280;27576;53.366;-1.498;2023-04-07T08:40:57;100744.78;;;9.37;74.06
41898;BME280;27576;53.366;-1.498;2023-04-07T08:43:25;100746.72;;;9.45;72.89
41898;BME280;27576;53.366;-1.498;2023-04-07T08:45:54;100704.00;;;9.25;73.01
41898;BME280;27576;53.366;-1.498;2023-04-07T08:48:22;100718.16;;;9.41;72.04
41898;BME280;27576;53.366;-1.498;2023-04-07T08:50:48;100745.41;;;9.64;71.27
41898;BME280;27576;53.366;-1.498;2023-04-07T08:53:19;100744.66;;;9.70;71.80
41898;BME280;27576;53.366;-1.498;2023-04-07T08:55:47;100744.13;;;9.84;70.64
41898;BME280;27576;53.366;-1.498;2023-04-07T08:58:13;100670.06;;;9.49;71.80
41898;BME280;27576;53.366;-1.498;2023-04-07T09:00:44;100735.75;;;9.98;70.80
41898;BME280;27576;53.366;-1.498;2023-04-07T09:03:10;100735.03;;;10.05;71.30
41898;BME280;27576;53.366;-1.498;2023-04-07T09:05:37;100728.31;;;10.13;71.01
41898;BME280;27576;53.366;-1.498;2023-04-07T09:08:03;100731.03;;;10.19;70.94
41898;BME280;27576;53.366;-1.498;2023-04-07T09:10:29;100740.69;;;10.26;68.27
41898;BME280;27576;53.366;-1.498;2023-04-07T09:12:57;100740.88;;;10.37;67.55
41898;BME280;27576;53.366;-1.498;2023-04-07T09:15:22;100748.88;;;10.48;69.42
41898;BME280;27576;53.366;-1.498;2023-04-07T09:17:48;100747.47;;;10.65;69.20
41898;BME280;27576;53.366;-1.498;2023-04-07T09:20:13;100737.34;;;10.80;69.00
41898;BME280;27576;53.366;-1.498;2023-04-07T09:22:41;100746.28;;;10.98;68.81
41898;BME280;27576;53.366;-1.498;2023-04-07T09:25:18;100740.50;;;11.16;65.80
41898;BME280;27576;53.366;-1.498;2023-04-07T09:27:58;100715.50;;;11.18;67.39
41898;BME280;27576;53.366;-1.498;2023-04-07T09:30:25;100744.50;;;11.48;67.00
41898;BME280;27576;53.366;-1.498;2023-04-07T09:32:51;100721.91;;;11.43;66.31
41898;BME280;27576;53.366;-1.498;2023-04-07T09:35:16;100740.34;;;11.61;65.36
41898;BME280;27576;53.366;-1.498;2023-04-07T09:37:42;100728.28;;;11.66;66.87
41898;BME280;27576;53.366;-1.498;2023-04-07T09:40:08;100683.19;;;11.57;65.80
41898;BME280;27576;53.366;-1.498;2023-04-07T09:42:34;100721.66;;;11.85;65.36
41898;BME280;27576;53.366;-1.498;2023-04-07T09:45:02;100739.06;;;11.92;62.28
41898;BME280;27576;53.366;-1.498;2023-04-07T09:47:28;100737.56;;;12.14;63.75
41898;BME280;27576;53.366;-1.498;2023-04-07T09:49:54;100750.78;;;12.33;63.64
41898;BME280;27576;53.366;-1.498;2023-04-07T09:52:49;100754.34;;;12.41;58.17
41898;BME280;27576;53.366;-1.498;2023-04-07T09:55:22;100742.31;;;12.52;60.77
41898;BME280;27576;53.366;-1.498;2023-04-07T09:57:49;100746.75;;;12.61;59.17
41898;BME280;27576;53.366;-1.498;2023-04-07T10:00:15;100743.34;;;12.68;58.62
41898;BME280;27576;53.366;-1.498;2023-04-07T10:02:41;100725.25;;;12.80;58.37
41898;BME280;27576;53.366;-1.498;2023-04-07T10:05:07;100747.22;;;13.16;59.17
41898;BME280;27576;53.366;-1.498;2023-04-07T10:07:33;100727.28;;;13.16;59.39
41898;BME280;27576;53.366;-1.498;2023-04-07T10:09:59;100708.22;;;13.17;58.22
41898;BME280;27576;53.366;-1.498;2023-04-07T10:12:26;100743.19;;;13.53;57.09
41898;BME280;27576;53.366;-1.498;2023-04-07T10:14:51;100744.97;;;13.57;54.93
41898;BME280;27576;53.366;-1.498;2023-04-07T10:17:17;100745.81;;;13.56;55.90
41898;BME280;27576;53.366;-1.498;2023-04-07T10:19:45;100709.97;;;13.18;52.95
41898;BME280;27576;53.366;-1.498;2023-04-07T10:22:13;100732.50;;;13.19;53.84
41898;BME280;27576;53.366;-1.498;2023-04-07T10:24:59;100742.91;;;13.18;54.05
41898;BME280;27576;53.366;-1.498;2023-04-07T10:27:40;100730.69;;;13.06;54.45
41898;BME280;27576;53.366;-1.498;2023-04-07T10:30:17;100718.66;;;13.22;54.44
41898;BME280;27576;53.366;-1.498;2023-04-07T10:32:46;100734.47;;;13.46;53.68
41898;BME280;27576;53.366;-1.498;2023-04-07T10:35:11;100725.00;;;13.56;52.64
41898;BME280;27576;53.366;-1.498;2023-04-07T10:37:37;100708.50;;;13.63;52.20
41898;BME280;27576;53.366;-1.498;2023-04-07T10:42:44;100706.06;;;13.94;51.52
41898;BME280;27576;53.366;-1.498;2023-04-07T10:45:11;100723.41;;;13.90;50.83
41898;BME280;27576;53.366;-1.498;2023-04-07T10:50:22;100723.44;;;13.92;52.64
41898;BME280;27576;53.366;-1.498;2023-04-07T10:53:00;100727.81;;;14.00;54.31
41898;BME280;27576;53.366;-1.498;2023-04-07T10:55:32;100728.72;;;14.12;48.59
41898;BME280;27576;53.366;-1.498;2023-04-07T10:58:20;100724.34;;;14.03;45.33
41898;BME280;27576;53.366;-1.498;2023-04-07T11:03:21;100733.09;;;14.20;51.14
41898;BME280;27576;53.366;-1.498;2023-04-07T11:05:47;100726.19;;;14.41;51.08
41898;BME280;27576;53.366;-1.498;2023-04-07T11:08:12;100716.69;;;14.61;50.01
41898;BME280;27576;53.366;-1.498;2023-04-07T11:10:37;100698.44;;;14.64;50.83
41898;BME280;27576;53.366;-1.498;2023-04-07T11:13:05;100701.06;;;14.66;48.23
41898;BME280;27576;53.366;-1.498;2023-04-07T11:15:32;100730.63;;;14.77;48.96
41898;BME280;27576;53.366;-1.498;2023-04-07T11:20:47;100728.00;;;14.51;46.36
41898;BME280;27576;53.366;-1.498;2023-04-07T11:23:14;100727.06;;;14.43;47.53
41898;BME280;27576;53.366;-1.498;2023-04-07T11:25:45;100720.13;;;14.43;47.01
41898;BME280;27576;53.366;-1.498;2023-04-07T11:28:12;100703.59;;;14.31;45.93
41898;BME280;27576;53.366;-1.498;2023-04-07T11:30:38;100712.28;;;14.45;47.52
41898;BME280;27576;53.366;-1.498;2023-04-07T11:33:04;100709.66;;;14.40;46.49
41898;BME280;27576;53.366;-1.498;2023-04-07T11:35:30;100702.72;;;14.44;44.90
41898;BME280;27576;53.366;-1.498;2023-04-07T11:37:59;100715.81;;;14.56;43.71
41898;BME280;27576;53.366;-1.498;2023-04-07T11:40:35;100725.38;;;14.53;43.64
41898;BME280;27576;53.366;-1.498;2023-04-07T11:43:03;100698.38;;;14.35;43.78
41898;BME280;27576;53.366;-1.498;2023-04-07T11:45:39;100700.97;;;14.41;44.44
41898;BME280;27576;53.366;-1.498;2023-04-07T11:48:05;100698.44;;;14.57;47.02
41898;BME280;27576;53.366;-1.498;2023-04-07T11:50:49;100694.97;;;14.68;47.78
41898;BME280;27576;53.366;-1.498;2023-04-07T11:53:33;100708.00;;;14.88;46.52
41898;BME280;27576;53.366;-1.498;2023-04-07T11:56:03;100714.97;;;14.92;44.72
41898;BME280;27576;53.366;-1.498;2023-04-07T11:58:28;100711.47;;;14.81;45.25
41898;BME280;27576;53.366;-1.498;2023-04-07T12:00:58;100688.00;;;14.73;43.01
41898;BME280;27576;53.366;-1.498;2023-04-07T12:03:27;100688.00;;;14.72;45.60
41898;BME280;27576;53.366;-1.498;2023-04-07T12:05:53;100714.09;;;14.92;48.48
41898;BME280;27576;53.366;-1.498;2023-04-07T12:08:19;100676.69;;;14.91;49.02
41898;BME280;27576;53.366;-1.498;2023-04-07T12:10:45;100681.03;;;15.12;48.11
41898;BME280;27576;53.366;-1.498;2023-04-07T12:13:12;100694.88;;;15.43;44.44
41898;BME280;27576;53.366;-1.498;2023-04-07T12:15:38;100700.03;;;15.82;43.41
41898;BME280;27576;53.366;-1.498;2023-04-07T12:18:03;100709.34;;;16.39;42.23
41898;BME280;27576;53.366;-1.498;2023-04-07T12:20:29;100697.50;;;17.06;39.96
41898;BME280;27576;53.366;-1.498;2023-04-07T12:22:54;100703.06;;;17.59;38.84
41898;BME280;27576;53.366;-1.498;2023-04-07T12:25:20;100684.06;;;18.14;37.70
41898;BME280;27576;53.366;-1.498;2023-04-07T12:27:45;100665.03;;;18.60;37.77
41898;BME280;27576;53.366;-1.498;2023-04-07T12:30:11;100671.72;;;19.29;36.08
41898;BME280;27576;53.366;-1.498;2023-04-07T12:32:37;100676.00;;;19.81;33.21
41898;BME280;27576;53.366;-1.498;2023-04-07T12:35:03;100688.78;;;19.96;34.25
41898;BME280;27576;53.366;-1.498;2023-04-07T12:37:29;100689.47;;;20.45;36.19
41898;BME280;27576;53.366;-1.498;2023-04-07T12:39:55;100679.22;;;20.71;34.93
41898;BME280;27576;53.366;-1.498;2023-04-07T12:42:21;100665.81;;;21.15;32.03
41898;BME280;27576;53.366;-1.498;2023-04-07T12:44:46;100693.13;;;21.76;36.03
41898;BME280;27576;53.366;-1.498;2023-04-07T12:47:11;100672.75;;;22.11;34.75
41898;BME280;27576;53.366;-1.498;2023-04-07T12:49:37;100678.38;;;22.58;34.74
41898;BME280;27576;53.366;-1.498;2023-04-07T12:52:02;100673.47;;;23.00;31.23
41898;BME280;27576;53.366;-1.498;2023-04-07T12:54:28;100665.66;;;23.45;31.79
41898;BME280;27576;53.366;-1.498;2023-04-07T12:56:54;100678.94;;;23.92;30.77
41898;BME280;27576;53.366;-1.498;2023-04-07T12:59:21;100665.00;;;24.11;30.12
41898;BME280;27576;53.366;-1.498;2023-04-07T13:01:46;100685.50;;;24.51;31.20
41898;BME280;27576;53.366;-1.498;2023-04-07T13:04:11;100673.53;;;24.85;29.12
41898;BME280;27576;53.366;-1.498;2023-04-07T13:06:37;100655.53;;;24.91;30.77